Ana Sayfa
METAR-TAF:

METAR-TAF

Havaalanları :

Comanche County-City Airport

Comanche, Teksas, Amerika Birleşik Devletleri

Enlem: 31-55N, Boylam: 098-36-01W, yükseklik: 423 m

Güncel hava durumu gözlemi

Rapor saat 16:15 UTC de 27 dakika önce yapıldı.
Rüzgar kuzeydan 11 kt
Sıcaklık 8°C
Nem 66%
Basınç 1027 hPa
Görüş mesafesi: 16.1 km
4200 ft yükseklikte çok bulutlu

METAR: KMKN 141615Z AUTO 01011KT 10SM OVC042 08/02 A3033 RMK AO2 T00760020

Saat: 10:42 (16:42 UTC)


TAF: eksik

4.000'den fazla havaalanı için hava durumu gözlemleri ve tahminleri (METAR ve TAF raporları).

Kullanılabilir istasyonlar harita üzerinde sarı ve kırmızı noktalarla gösterilir.

İstasyonun adını görmek için fareyi noktanın üzerinde gezdirin.

Sonrasında hava gözlem ve tahminlerini görmek için tıklayın.

Haritayı değiştirmek için: yaklaştırmak için siyah artı işaretli yeşil düğmeye ve uzaklaştırmak için de eksi işaretli düğmeye hızla tıklayın; bitişik haritalar için yeşil okları kullanın.


METAR-TAF: